createdAt,value
2017-12-10T00:01:28.409Z,-0.96
2017-12-10T00:03:54.494Z,-0.97
2017-12-10T00:06:20.598Z,-1.00
2017-12-10T00:08:46.655Z,-1.05
2017-12-10T00:11:12.779Z,-1.03
2017-12-10T00:13:38.863Z,-1.05
2017-12-10T00:16:04.998Z,-1.12
2017-12-10T00:18:31.034Z,-1.11
2017-12-10T00:20:57.089Z,-1.17
2017-12-10T00:23:23.126Z,-1.15
2017-12-10T00:25:49.170Z,-1.18
2017-12-10T00:28:15.206Z,-1.21
2017-12-10T00:30:41.214Z,-1.20
2017-12-10T00:33:07.245Z,-1.24
2017-12-10T00:35:33.322Z,-1.28
2017-12-10T00:37:59.366Z,-1.32
2017-12-10T00:40:25.490Z,-1.35
2017-12-10T00:42:51.536Z,-1.30
2017-12-10T00:45:17.577Z,-1.22
2017-12-10T00:47:43.598Z,-1.24
2017-12-10T00:50:09.690Z,-1.20
2017-12-10T00:52:35.755Z,-1.24
2017-12-10T00:55:01.776Z,-1.23
2017-12-10T00:57:28.689Z,-1.34
2017-12-10T00:59:54.757Z,-1.34
2017-12-10T01:02:20.915Z,-1.27
2017-12-10T01:04:47.005Z,-1.23
2017-12-10T01:07:13.042Z,-1.25
2017-12-10T01:09:39.142Z,-1.32
2017-12-10T01:12:05.170Z,-1.38
2017-12-10T01:14:31.231Z,-1.37
2017-12-10T01:16:57.285Z,-1.39
2017-12-10T01:19:23.358Z,-1.38
2017-12-10T01:21:49.410Z,-1.38
2017-12-10T01:24:15.518Z,-1.37
2017-12-10T01:26:41.555Z,-1.41
2017-12-10T01:29:07.597Z,-1.35
2017-12-10T01:31:33.738Z,-1.35
2017-12-10T01:33:59.782Z,-1.37
2017-12-10T01:36:25.814Z,-1.32
2017-12-10T01:38:51.859Z,-1.36
2017-12-10T01:41:17.871Z,-1.34
2017-12-10T01:43:43.870Z,-1.37
2017-12-10T01:46:09.894Z,-1.35
2017-12-10T01:48:35.944Z,-1.30
2017-12-10T01:51:02.042Z,-1.33
2017-12-10T01:53:28.114Z,-1.29
2017-12-10T01:55:54.166Z,-1.33
2017-12-10T01:58:20.199Z,-1.33
2017-12-10T02:00:46.370Z,-1.35
2017-12-10T02:03:12.437Z,-1.34
2017-12-10T02:05:38.522Z,-1.33
2017-12-10T02:08:04.574Z,-1.38
2017-12-10T02:10:30.595Z,-1.39
2017-12-10T02:12:56.680Z,-1.37
2017-12-10T02:15:22.683Z,-1.39
2017-12-10T02:17:48.768Z,-1.36
2017-12-10T02:20:14.821Z,-1.39
2017-12-10T02:22:40.848Z,-1.37
2017-12-10T02:25:07.843Z,-1.38
2017-12-10T02:27:33.878Z,-1.45
2017-12-10T02:29:59.978Z,-1.53
2017-12-10T02:32:26.026Z,-1.55
2017-12-10T02:34:52.094Z,-1.52
2017-12-10T02:37:18.189Z,-1.58
2017-12-10T02:39:44.210Z,-1.51
2017-12-10T02:42:10.250Z,-1.56
2017-12-10T02:44:36.369Z,-1.62
2017-12-10T02:47:02.455Z,-1.72
2017-12-10T02:49:28.502Z,-1.68
2017-12-10T02:51:56.282Z,-1.64
2017-12-10T02:54:22.372Z,-1.68
2017-12-10T02:56:48.456Z,-1.79
2017-12-10T02:59:14.527Z,-1.83
2017-12-10T03:01:40.590Z,-1.85
2017-12-10T03:04:06.620Z,-1.88
2017-12-10T03:06:32.749Z,-1.86
2017-12-10T03:08:58.849Z,-1.97
2017-12-10T03:11:24.947Z,-1.96
2017-12-10T03:13:51.022Z,-2.03
2017-12-10T03:16:17.149Z,-2.13
2017-12-10T03:18:44.229Z,-2.11
2017-12-10T03:21:10.286Z,-2.05
2017-12-10T03:23:36.362Z,-2.17
2017-12-10T03:26:02.405Z,-2.15
2017-12-10T03:28:28.551Z,-2.16
2017-12-10T03:30:54.596Z,-2.18
2017-12-10T03:33:20.621Z,-2.28
2017-12-10T03:35:46.677Z,-2.19
2017-12-10T03:38:12.767Z,-2.31
2017-12-10T03:40:38.866Z,-2.26
2017-12-10T03:43:04.951Z,-2.34
2017-12-10T03:45:31.038Z,-2.29
2017-12-10T03:47:57.134Z,-2.32
2017-12-10T03:50:23.162Z,-2.33
2017-12-10T03:52:49.193Z,-2.46
2017-12-10T03:55:15.242Z,-2.52
2017-12-10T03:57:41.282Z,-2.51
2017-12-10T04:00:07.317Z,-2.46
2017-12-10T04:02:33.431Z,-2.43
2017-12-10T04:04:59.485Z,-2.53
2017-12-10T04:07:25.574Z,-2.49
2017-12-10T04:09:51.650Z,-2.52
2017-12-10T04:12:17.726Z,-2.56
2017-12-10T04:14:43.806Z,-2.53
2017-12-10T04:17:09.897Z,-2.56
2017-12-10T04:19:35.954Z,-2.54
2017-12-10T04:22:02.059Z,-2.57
2017-12-10T04:24:28.096Z,-2.56
2017-12-10T04:26:54.162Z,-2.52
2017-12-10T04:29:20.380Z,-2.57
2017-12-10T04:31:46.467Z,-2.47
2017-12-10T04:34:12.530Z,-2.43
2017-12-10T04:36:38.627Z,-2.41
2017-12-10T04:39:04.736Z,-2.39
2017-12-10T04:41:30.784Z,-2.43
2017-12-10T04:43:56.917Z,-2.54
2017-12-10T04:46:22.967Z,-2.51
2017-12-10T04:48:49.124Z,-2.55
2017-12-10T04:51:15.192Z,-2.53
2017-12-10T04:53:41.251Z,-2.60
2017-12-10T04:56:07.349Z,-2.68
2017-12-10T04:58:33.394Z,-2.69
2017-12-10T05:00:59.461Z,-2.75
2017-12-10T05:03:25.570Z,-2.76
2017-12-10T05:05:51.642Z,-2.74
2017-12-10T05:08:17.800Z,-2.86
2017-12-10T05:10:43.856Z,-2.91
2017-12-10T05:13:09.860Z,-3.00
2017-12-10T05:15:35.902Z,-2.97
2017-12-10T05:18:01.977Z,-3.00
2017-12-10T05:20:28.078Z,-3.07
2017-12-10T05:22:54.163Z,-3.16
2017-12-10T05:25:20.203Z,-3.18
2017-12-10T05:27:46.271Z,-3.27
2017-12-10T05:30:12.308Z,-3.28
2017-12-10T05:32:38.410Z,-3.26
2017-12-10T05:35:04.509Z,-3.32
2017-12-10T05:37:30.609Z,-3.34
2017-12-10T05:39:56.725Z,-3.41
2017-12-10T05:42:22.804Z,-3.50
2017-12-10T05:44:48.893Z,-3.48
2017-12-10T05:47:14.974Z,-3.45
2017-12-10T05:49:41.015Z,-3.54
2017-12-10T05:52:07.102Z,-3.57
2017-12-10T05:54:33.227Z,-3.62
2017-12-10T05:56:59.278Z,-3.65
2017-12-10T05:59:25.361Z,-3.65
2017-12-10T06:01:51.490Z,-3.61
2017-12-10T06:04:17.622Z,-3.64
2017-12-10T06:06:43.665Z,-3.73
2017-12-10T06:09:09.718Z,-3.70
2017-12-10T06:11:35.787Z,-3.78
2017-12-10T06:14:01.982Z,-3.77
2017-12-10T06:16:28.061Z,-3.82
2017-12-10T06:18:54.108Z,-3.76
2017-12-10T06:21:20.151Z,-3.79
2017-12-10T06:23:46.219Z,-3.79
2017-12-10T06:26:12.314Z,-3.78
2017-12-10T06:28:38.371Z,-3.85
2017-12-10T06:31:04.408Z,-3.90
2017-12-10T06:33:30.518Z,-3.90
2017-12-10T06:35:56.560Z,-3.93
2017-12-10T06:38:22.587Z,-3.93
2017-12-10T06:40:48.697Z,-3.89
2017-12-10T06:43:14.770Z,-3.88
2017-12-10T06:45:40.905Z,-3.94
2017-12-10T06:48:06.974Z,-3.99
2017-12-10T06:50:33.023Z,-4.01
2017-12-10T06:52:59.086Z,-4.03
2017-12-10T06:55:25.834Z,-4.11
2017-12-10T06:57:51.895Z,-4.07
2017-12-10T07:00:17.956Z,-4.10
2017-12-10T07:02:44.024Z,-4.08
2017-12-10T07:05:10.106Z,-4.07
2017-12-10T07:07:36.178Z,-4.08
2017-12-10T07:10:02.323Z,-4.10
2017-12-10T07:12:28.421Z,-4.18
2017-12-10T07:14:54.550Z,-4.21
2017-12-10T07:17:20.586Z,-4.24
2017-12-10T07:19:46.666Z,-4.28
2017-12-10T07:22:12.719Z,-4.27
2017-12-10T07:24:38.816Z,-4.18
2017-12-10T07:27:04.969Z,-4.20
2017-12-10T07:29:31.058Z,-4.17
2017-12-10T07:31:57.155Z,-4.16
2017-12-10T07:34:23.239Z,-4.15
2017-12-10T07:36:49.327Z,-4.15
2017-12-10T07:39:15.471Z,-4.03
2017-12-10T07:41:41.510Z,-3.93
2017-12-10T07:44:07.646Z,-3.93
2017-12-10T07:46:33.724Z,-3.95
2017-12-10T07:48:59.834Z,-3.88
2017-12-10T07:51:25.909Z,-3.84
2017-12-10T07:53:51.951Z,-3.77
2017-12-10T07:56:18.033Z,-3.71
2017-12-10T07:58:44.110Z,-3.68
2017-12-10T08:01:10.194Z,-3.63
2017-12-10T08:03:36.246Z,-3.59
2017-12-10T08:06:02.299Z,-3.59
2017-12-10T08:08:28.366Z,-3.62
2017-12-10T08:10:54.432Z,-3.60
2017-12-10T08:13:20.547Z,-3.59
2017-12-10T08:15:46.851Z,-3.61
2017-12-10T08:18:13.142Z,-3.66
2017-12-10T08:20:39.222Z,-3.67
2017-12-10T08:23:05.328Z,-3.53
2017-12-10T08:25:31.457Z,-3.49
2017-12-10T08:27:57.507Z,-3.51
2017-12-10T08:30:23.579Z,-3.44
2017-12-10T08:32:49.729Z,-3.32
2017-12-10T08:35:15.758Z,-3.13
2017-12-10T08:37:41.884Z,-3.14
2017-12-10T08:40:07.967Z,-3.04
2017-12-10T08:42:34.140Z,-2.93
2017-12-10T08:45:00.223Z,-2.90
2017-12-10T08:47:26.310Z,-2.94
2017-12-10T08:49:52.384Z,-2.88
2017-12-10T08:52:18.422Z,-2.87
2017-12-10T08:54:44.607Z,-2.83
2017-12-10T08:57:10.765Z,-2.75
2017-12-10T08:59:37.006Z,-2.76
2017-12-10T09:02:03.160Z,-2.70
2017-12-10T09:04:29.220Z,-2.59
2017-12-10T09:06:55.368Z,-2.54
2017-12-10T09:09:21.435Z,-2.51
2017-12-10T09:11:47.553Z,-2.41
2017-12-10T09:14:13.767Z,-2.32
2017-12-10T09:16:39.811Z,-2.38
2017-12-10T09:19:05.899Z,-2.53
2017-12-10T09:21:31.951Z,-2.44
2017-12-10T09:23:58.020Z,-2.44
2017-12-10T09:26:24.095Z,-2.38
2017-12-10T09:28:50.227Z,-2.30
2017-12-10T09:31:16.212Z,-2.23
2017-12-10T09:33:42.281Z,-2.18
2017-12-10T09:36:08.359Z,-2.26
2017-12-10T09:38:34.422Z,-2.14
2017-12-10T09:41:00.510Z,-2.04
2017-12-10T09:43:26.556Z,-2.05
2017-12-10T09:45:52.650Z,-1.88
2017-12-10T09:48:18.714Z,-1.95
2017-12-10T09:50:44.777Z,-1.88
2017-12-10T09:53:10.971Z,-1.91
2017-12-10T09:55:37.058Z,-1.87
2017-12-10T09:58:03.141Z,-1.88
2017-12-10T10:00:29.233Z,-1.84
2017-12-10T10:02:55.426Z,-1.86
2017-12-10T10:05:21.518Z,-1.73
2017-12-10T10:07:47.621Z,-1.66
2017-12-10T10:10:13.679Z,-1.58
2017-12-10T10:12:39.744Z,-1.62
2017-12-10T10:15:05.810Z,-1.67
2017-12-10T10:17:31.842Z,-1.54
2017-12-10T10:19:57.973Z,-1.63
2017-12-10T10:22:24.265Z,-1.61
2017-12-10T10:24:50.412Z,-1.56
2017-12-10T10:27:16.454Z,-1.72
2017-12-10T10:29:42.622Z,-1.62
2017-12-10T10:32:08.683Z,-1.71
2017-12-10T10:34:34.750Z,-1.73
2017-12-10T10:37:00.811Z,-1.60
2017-12-10T10:39:27.919Z,-1.45
2017-12-10T10:41:54.080Z,-1.42
2017-12-10T10:44:20.227Z,-1.58
2017-12-10T10:46:46.332Z,-1.46
2017-12-10T10:49:12.436Z,-1.43
2017-12-10T10:51:38.633Z,-1.42
2017-12-10T10:54:04.682Z,-1.41
2017-12-10T10:56:30.793Z,-1.38
2017-12-10T10:58:56.850Z,-1.45
2017-12-10T11:01:22.979Z,-1.39
2017-12-10T11:03:49.078Z,-1.29
2017-12-10T11:06:15.311Z,-1.37
2017-12-10T11:08:41.495Z,-1.27
2017-12-10T11:11:07.625Z,-1.22
2017-12-10T11:13:33.869Z,-1.18
2017-12-10T11:15:59.978Z,-1.26
2017-12-10T11:18:26.956Z,-1.30
2017-12-10T11:20:53.404Z,-1.24
2017-12-10T11:23:19.907Z,-1.23
2017-12-10T11:25:46.212Z,-1.29
2017-12-10T11:28:12.393Z,-1.27
2017-12-10T11:30:38.961Z,-1.22
2017-12-10T11:33:05.317Z,-1.23
2017-12-10T11:35:31.571Z,-1.24
2017-12-10T11:37:57.696Z,-1.18
2017-12-10T11:40:24.015Z,-1.10
2017-12-10T11:42:50.236Z,-1.30
2017-12-10T11:45:16.484Z,-1.21
2017-12-10T11:47:42.686Z,-1.23
2017-12-10T11:50:09.173Z,-1.29
2017-12-10T11:52:35.456Z,-1.29
2017-12-10T11:55:01.809Z,-1.26
2017-12-10T11:57:28.108Z,-1.26
2017-12-10T11:59:54.264Z,-1.24
2017-12-10T12:02:20.875Z,-1.42
2017-12-10T12:04:46.917Z,-1.21
2017-12-10T12:07:13.170Z,-1.25
2017-12-10T12:09:39.366Z,-1.23
2017-12-10T12:12:05.454Z,-1.27
2017-12-10T12:14:31.525Z,-1.30
2017-12-10T12:16:57.612Z,-1.26
2017-12-10T12:19:23.787Z,-1.31
2017-12-10T12:21:49.895Z,-1.29
2017-12-10T12:24:15.983Z,-1.31
2017-12-10T12:26:42.139Z,-1.35
2017-12-10T12:29:08.251Z,-1.39
2017-12-10T12:31:34.334Z,-1.50
2017-12-10T12:34:00.406Z,-1.58
2017-12-10T12:36:26.490Z,-1.72
2017-12-10T12:38:52.571Z,-1.82
2017-12-10T12:41:18.757Z,-1.98
2017-12-10T12:43:44.811Z,-2.14
2017-12-10T12:46:10.869Z,-2.22
2017-12-10T12:48:36.982Z,-2.27
2017-12-10T12:51:03.047Z,-2.32
2017-12-10T12:53:29.161Z,-2.37
2017-12-10T12:55:55.315Z,-2.38
2017-12-10T12:58:21.418Z,-2.44
2017-12-10T13:00:47.550Z,-2.42
2017-12-10T13:03:13.710Z,-2.53
2017-12-10T13:05:39.714Z,-2.60
2017-12-10T13:08:05.778Z,-2.54
2017-12-10T13:10:31.851Z,-2.61
2017-12-10T13:12:57.939Z,-2.54
2017-12-10T13:15:24.062Z,-2.55
2017-12-10T13:17:50.171Z,-2.57
2017-12-10T13:20:16.562Z,-2.56
2017-12-10T13:22:42.628Z,-2.69
2017-12-10T13:25:08.898Z,-2.65
2017-12-10T13:27:35.083Z,-2.76
2017-12-10T13:30:01.206Z,-2.87
2017-12-10T13:32:27.286Z,-2.85
2017-12-10T13:34:53.442Z,-2.77
2017-12-10T13:37:19.632Z,-2.71
2017-12-10T13:39:45.715Z,-2.90
2017-12-10T13:42:11.815Z,-2.72
2017-12-10T13:44:39.702Z,-2.58
2017-12-10T13:47:05.857Z,-2.55
2017-12-10T13:49:32.817Z,-2.72
2017-12-10T13:51:58.955Z,-2.76
2017-12-10T13:54:25.213Z,-2.73
2017-12-10T13:56:51.419Z,-2.71
2017-12-10T13:59:17.522Z,-2.84
2017-12-10T14:01:43.771Z,-2.75
2017-12-10T14:04:09.931Z,-2.79
2017-12-10T14:06:36.538Z,-2.68
2017-12-10T14:09:02.686Z,-2.61
2017-12-10T14:11:28.868Z,-2.63
2017-12-10T14:13:54.971Z,-2.75
2017-12-10T14:16:21.309Z,-2.75
2017-12-10T14:18:47.389Z,-2.82
2017-12-10T14:21:13.486Z,-2.77
2017-12-10T14:23:39.583Z,-2.76
2017-12-10T14:26:06.366Z,-2.74
2017-12-10T14:28:32.431Z,-2.77
2017-12-10T14:30:58.494Z,-2.75
2017-12-10T14:33:24.603Z,-2.74
2017-12-10T14:35:50.942Z,-2.70
2017-12-10T14:38:17.067Z,-2.74
2017-12-10T14:40:43.150Z,-2.71
2017-12-10T14:43:09.970Z,-2.82
2017-12-10T14:45:36.122Z,-2.73
2017-12-10T14:48:02.270Z,-2.78
2017-12-10T14:50:28.529Z,-2.80
2017-12-10T14:52:54.846Z,-2.78
2017-12-10T14:55:21.227Z,-2.80
2017-12-10T14:57:47.494Z,-2.82
2017-12-10T15:00:13.615Z,-2.76
2017-12-10T15:02:39.710Z,-2.74
2017-12-10T15:05:05.794Z,-2.72
2017-12-10T15:07:31.871Z,-2.71
2017-12-10T15:09:57.994Z,-2.78
2017-12-10T15:12:24.337Z,-2.71
2017-12-10T15:14:50.412Z,-2.70
2017-12-10T15:17:16.622Z,-2.65
2017-12-10T15:19:42.794Z,-2.58
2017-12-10T15:22:08.862Z,-2.71
2017-12-10T15:24:35.163Z,-2.63
2017-12-10T15:27:01.306Z,-2.54
2017-12-10T15:29:27.389Z,-2.46
2017-12-10T15:31:53.720Z,-2.62
2017-12-10T15:34:20.900Z,-2.56
2017-12-10T15:36:48.108Z,-2.55
2017-12-10T15:39:14.311Z,-2.46
2017-12-10T15:41:40.489Z,-2.43
2017-12-10T15:44:06.624Z,-2.37
2017-12-10T15:46:32.809Z,-2.41
2017-12-10T15:48:59.019Z,-2.30
2017-12-10T15:51:25.074Z,-2.41
2017-12-10T15:53:51.150Z,-2.38
2017-12-10T15:56:17.898Z,-2.35
2017-12-10T15:58:44.206Z,-2.32
2017-12-10T16:01:10.303Z,-2.27
2017-12-10T16:03:45.420Z,-2.21
2017-12-10T16:06:12.395Z,-2.16
2017-12-10T16:08:38.676Z,-2.18
2017-12-10T16:11:05.499Z,-2.20
2017-12-10T16:13:31.630Z,-2.12
2017-12-10T16:15:58.400Z,-2.12
2017-12-10T16:18:24.483Z,-2.00
2017-12-10T16:20:50.690Z,-2.00
2017-12-10T16:23:16.775Z,-1.96
2017-12-10T16:25:42.843Z,-1.89
2017-12-10T16:28:09.090Z,-1.84
2017-12-10T16:30:35.118Z,-1.76
2017-12-10T16:33:01.255Z,-1.74
2017-12-10T16:35:27.372Z,-1.67
2017-12-10T16:37:53.557Z,-1.69
2017-12-10T16:40:19.805Z,-1.70
2017-12-10T16:42:45.929Z,-1.58
2017-12-10T16:45:13.826Z,-1.50
2017-12-10T16:47:39.927Z,-1.53
2017-12-10T16:50:05.963Z,-1.49
2017-12-10T16:52:33.573Z,-1.44
2017-12-10T16:54:59.640Z,-1.37
2017-12-10T16:57:25.779Z,-1.35
2017-12-10T16:59:51.806Z,-1.36
2017-12-10T17:02:18.796Z,-1.28
2017-12-10T17:04:44.902Z,-1.21
2017-12-10T17:07:11.265Z,-1.24
2017-12-10T17:09:38.674Z,-1.27
2017-12-10T17:12:04.819Z,-1.17
2017-12-10T17:14:31.226Z,-1.24
2017-12-10T17:17:06.083Z,-1.10
2017-12-10T17:19:32.186Z,-1.06
2017-12-10T17:21:58.257Z,-1.07
2017-12-10T17:24:24.394Z,-1.06
2017-12-10T17:26:50.595Z,-1.02
2017-12-10T17:29:16.674Z,-1.02
2017-12-10T17:31:42.761Z,-1.00
2017-12-10T17:34:08.886Z,-0.98
2017-12-10T17:36:35.075Z,-0.97
2017-12-10T17:39:01.483Z,-0.95
2017-12-10T17:41:27.850Z,-0.96
2017-12-10T17:43:54.854Z,-0.86
2017-12-10T17:46:21.758Z,-0.88
2017-12-10T17:48:47.944Z,-0.86
2017-12-10T17:51:14.043Z,-0.75
2017-12-10T17:53:40.190Z,-0.65
2017-12-10T17:56:06.277Z,-0.70
2017-12-10T17:58:32.377Z,-0.67
2017-12-10T18:00:58.843Z,-0.70
2017-12-10T18:03:24.942Z,-0.66
2017-12-10T18:05:51.018Z,-0.67
2017-12-10T18:08:17.251Z,-0.66
2017-12-10T18:10:43.320Z,-0.61
2017-12-10T18:13:09.405Z,-0.61
2017-12-10T18:15:35.483Z,-0.59
2017-12-10T18:18:01.587Z,-0.56
2017-12-10T18:20:27.727Z,-0.60
2017-12-10T18:22:53.811Z,-0.54
2017-12-10T18:25:20.235Z,-0.58
2017-12-10T18:27:46.370Z,-0.55
2017-12-10T18:30:12.486Z,-0.52
2017-12-10T18:32:38.590Z,-0.57
2017-12-10T18:35:04.738Z,-0.50
2017-12-10T18:37:30.869Z,-0.38
2017-12-10T18:39:57.034Z,-0.36
2017-12-10T18:42:23.702Z,-0.38
2017-12-10T18:44:49.875Z,-0.28
2017-12-10T18:47:15.995Z,-0.27
2017-12-10T18:49:42.591Z,-0.19
2017-12-10T18:52:08.695Z,-0.08
2017-12-10T18:54:35.251Z,0.03
2017-12-10T18:57:01.332Z,0.14
2017-12-10T18:59:27.519Z,0.05
2017-12-10T19:01:53.598Z,0.01
2017-12-10T19:04:19.751Z,0.10
2017-12-10T19:06:45.895Z,0.10
2017-12-10T19:09:11.962Z,0.00
2017-12-10T19:11:38.001Z,-0.03
2017-12-10T19:14:04.077Z,-0.02
2017-12-10T19:16:30.426Z,0.01
2017-12-10T19:18:56.479Z,-0.03
2017-12-10T19:21:22.654Z,0.01
2017-12-10T19:23:48.852Z,0.02
2017-12-10T19:26:14.926Z,0.05
2017-12-10T19:28:40.982Z,0.05
2017-12-10T19:31:07.219Z,0.09
2017-12-10T19:33:33.322Z,0.14
2017-12-10T19:36:00.600Z,0.30
2017-12-10T19:38:26.893Z,0.34
2017-12-10T19:40:54.703Z,0.35
2017-12-10T19:43:21.546Z,0.43
2017-12-10T19:45:47.755Z,0.57
2017-12-10T19:48:13.974Z,0.76
2017-12-10T19:50:41.104Z,0.74
2017-12-10T19:53:07.191Z,0.80
2017-12-10T19:55:33.245Z,0.94
2017-12-10T19:57:59.727Z,0.92
2017-12-10T20:00:26.332Z,0.88
2017-12-10T20:02:52.350Z,0.89
2017-12-10T20:05:18.699Z,0.97
2017-12-10T20:07:45.251Z,1.02
2017-12-10T20:10:11.559Z,1.08
2017-12-10T20:12:37.770Z,1.01
2017-12-10T20:15:03.898Z,1.31
2017-12-10T20:17:30.511Z,1.32
2017-12-10T20:19:56.684Z,1.36
2017-12-10T20:22:23.313Z,1.41
2017-12-10T20:24:49.385Z,1.50
2017-12-10T20:27:15.770Z,1.50
2017-12-10T20:29:41.978Z,1.57
2017-12-10T20:32:08.095Z,1.61
2017-12-10T20:34:34.135Z,1.69
2017-12-10T20:37:00.672Z,1.63
2017-12-10T20:39:26.830Z,1.69
2017-12-10T20:41:52.899Z,1.72
2017-12-10T20:44:19.043Z,1.77
2017-12-10T20:46:45.167Z,1.81
2017-12-10T20:49:11.250Z,1.79
2017-12-10T20:51:37.327Z,1.84
2017-12-10T20:54:03.474Z,1.97
2017-12-10T20:56:29.551Z,1.93
2017-12-10T20:58:55.721Z,1.92
2017-12-10T21:01:21.775Z,2.04
2017-12-10T21:03:47.979Z,2.06
2017-12-10T21:06:14.203Z,2.13
2017-12-10T21:08:40.466Z,2.13
2017-12-10T21:13:57.995Z,2.14
2017-12-10T21:16:24.167Z,2.22
2017-12-10T21:18:50.452Z,2.19
2017-12-10T21:21:16.607Z,2.26
2017-12-10T21:23:42.705Z,2.39
2017-12-10T21:26:08.791Z,2.45
2017-12-10T21:28:34.854Z,2.53
2017-12-10T21:31:01.023Z,2.55
2017-12-10T21:33:27.133Z,2.53
2017-12-10T21:35:53.191Z,2.55
2017-12-10T21:38:19.606Z,2.61
2017-12-10T21:40:45.711Z,2.61
2017-12-10T21:43:11.830Z,2.67
2017-12-10T21:45:37.859Z,2.74
2017-12-10T21:48:03.918Z,2.79
2017-12-10T21:50:30.009Z,2.78
2017-12-10T21:52:56.091Z,2.90
2017-12-10T21:55:22.210Z,2.93
2017-12-10T21:57:48.234Z,2.93
2017-12-10T22:00:14.981Z,2.98
2017-12-10T22:02:41.182Z,3.01
2017-12-10T22:05:07.338Z,3.00
2017-12-10T22:07:33.295Z,2.96
2017-12-10T22:09:59.363Z,3.04
2017-12-10T22:12:25.433Z,3.01
2017-12-10T22:14:51.751Z,2.99
2017-12-10T22:17:17.771Z,3.09
2017-12-10T22:19:43.811Z,3.14
2017-12-10T22:22:09.979Z,3.12
2017-12-10T22:24:36.006Z,3.23
2017-12-10T22:27:02.094Z,3.23
2017-12-10T22:29:28.201Z,3.16
2017-12-10T22:31:54.435Z,3.21
2017-12-10T22:34:20.498Z,3.18
2017-12-10T22:36:48.411Z,3.17
2017-12-10T22:39:14.490Z,3.03
2017-12-10T22:41:40.527Z,2.96
2017-12-10T22:44:06.671Z,3.06
2017-12-10T22:46:32.773Z,3.01
2017-12-10T22:48:58.896Z,3.07
2017-12-10T22:51:24.973Z,3.16
2017-12-10T22:53:51.640Z,3.10
2017-12-10T22:56:17.793Z,3.14
2017-12-10T22:58:43.905Z,3.21
2017-12-10T23:01:10.018Z,3.30
2017-12-10T23:03:36.099Z,3.32
2017-12-10T23:06:02.243Z,3.31
2017-12-10T23:08:28.314Z,3.33
2017-12-10T23:10:54.394Z,3.38
2017-12-10T23:13:32.822Z,3.38
2017-12-10T23:15:58.873Z,3.41
2017-12-10T23:18:24.909Z,3.45
2017-12-10T23:20:51.054Z,3.38
2017-12-10T23:23:17.241Z,3.43
2017-12-10T23:25:43.333Z,3.40
2017-12-10T23:28:09.426Z,3.47
2017-12-10T23:30:35.477Z,3.44
2017-12-10T23:33:01.853Z,3.48
2017-12-10T23:35:28.082Z,3.49
2017-12-10T23:37:54.257Z,3.50
2017-12-10T23:40:20.398Z,3.50
2017-12-10T23:42:46.486Z,3.46
2017-12-10T23:45:12.564Z,3.46
2017-12-10T23:47:38.625Z,3.46
2017-12-10T23:50:04.763Z,3.60
2017-12-10T23:52:30.858Z,3.62
2017-12-10T23:54:56.947Z,3.63
2017-12-10T23:57:23.021Z,3.65
2017-12-10T23:59:49.083Z,3.68
